sensor_id;sensor_type;location;lat;lon;timestamp;temperature;humidity
13616;DHT22;6879;51.368;6.782;2022-09-09T00:01:10;14.60;99.90
13616;DHT22;6879;51.368;6.782;2022-09-09T00:03:47;14.50;99.90
13616;DHT22;6879;51.368;6.782;2022-09-09T00:06:27;14.50;99.90
13616;DHT22;6879;51.368;6.782;2022-09-09T00:09:02;14.60;99.90
13616;DHT22;6879;51.368;6.782;2022-09-09T00:11:40;14.60;99.90
13616;DHT22;6879;51.368;6.782;2022-09-09T00:14:14;14.60;99.90
13616;DHT22;6879;51.368;6.782;2022-09-09T00:16:50;14.60;99.90
13616;DHT22;6879;51.368;6.782;2022-09-09T00:19:27;14.60;99.90
13616;DHT22;6879;51.368;6.782;2022-09-09T00:22:12;14.60;99.90
13616;DHT22;6879;51.368;6.782;2022-09-09T00:24:44;14.50;99.90
13616;DHT22;6879;51.368;6.782;2022-09-09T00:27:19;14.50;99.90
13616;DHT22;6879;51.368;6.782;2022-09-09T00:29:53;14.50;99.90
13616;DHT22;6879;51.368;6.782;2022-09-09T00:32:28;14.60;99.90
13616;DHT22;6879;51.368;6.782;2022-09-09T00:35:02;14.60;99.90
13616;DHT22;6879;51.368;6.782;2022-09-09T00:37:32;14.60;99.90
13616;DHT22;6879;51.368;6.782;2022-09-09T00:40:08;14.50;99.90
13616;DHT22;6879;51.368;6.782;2022-09-09T00:42:45;14.50;99.90
13616;DHT22;6879;51.368;6.782;2022-09-09T00:45:31;14.60;99.90
13616;DHT22;6879;51.368;6.782;2022-09-09T00:48:06;14.60;99.90
13616;DHT22;6879;51.368;6.782;2022-09-09T00:50:44;14.60;99.90
13616;DHT22;6879;51.368;6.782;2022-09-09T00:53:27;14.60;99.90
13616;DHT22;6879;51.368;6.782;2022-09-09T00:56:06;14.50;99.90
13616;DHT22;6879;51.368;6.782;2022-09-09T00:58:36;14.60;99.90
13616;DHT22;6879;51.368;6.782;2022-09-09T01:01:08;14.70;99.90
13616;DHT22;6879;51.368;6.782;2022-09-09T01:03:44;14.60;99.90
13616;DHT22;6879;51.368;6.782;2022-09-09T01:06:17;14.50;99.90
13616;DHT22;6879;51.368;6.782;2022-09-09T01:09:07;14.50;99.90
13616;DHT22;6879;51.368;6.782;2022-09-09T01:11:47;14.40;99.90
13616;DHT22;6879;51.368;6.782;2022-09-09T01:14:29;14.40;99.90
13616;DHT22;6879;51.368;6.782;2022-09-09T01:17:03;14.40;99.90
13616;DHT22;6879;51.368;6.782;2022-09-09T01:19:47;14.30;99.90
13616;DHT22;6879;51.368;6.782;2022-09-09T01:22:25;14.20;99.90
13616;DHT22;6879;51.368;6.782;2022-09-09T01:25:16;14.10;99.90
13616;DHT22;6879;51.368;6.782;2022-09-09T01:28:16;14.10;99.90
13616;DHT22;6879;51.368;6.782;2022-09-09T01:30:51;14.10;99.90
13616;DHT22;6879;51.368;6.782;2022-09-09T01:33:25;14.00;99.90
13616;DHT22;6879;51.368;6.782;2022-09-09T01:35:57;14.00;99.90
13616;DHT22;6879;51.368;6.782;2022-09-09T01:38:33;14.00;99.90
13616;DHT22;6879;51.368;6.782;2022-09-09T01:41:03;14.10;99.90
13616;DHT22;6879;51.368;6.782;2022-09-09T01:44:12;14.00;99.90
13616;DHT22;6879;51.368;6.782;2022-09-09T01:46:44;14.00;99.90
13616;DHT22;6879;51.368;6.782;2022-09-09T01:49:16;14.00;99.90
13616;DHT22;6879;51.368;6.782;2022-09-09T01:51:49;14.00;99.90
13616;DHT22;6879;51.368;6.782;2022-09-09T01:54:25;14.00;99.90
13616;DHT22;6879;51.368;6.782;2022-09-09T01:57:03;14.10;99.90
13616;DHT22;6879;51.368;6.782;2022-09-09T01:59:45;14.10;99.90
13616;DHT22;6879;51.368;6.782;2022-09-09T02:02:18;14.20;99.90
13616;DHT22;6879;51.368;6.782;2022-09-09T02:05:04;14.30;99.90
13616;DHT22;6879;51.368;6.782;2022-09-09T02:07:39;14.50;99.90
13616;DHT22;6879;51.368;6.782;2022-09-09T02:13:23;14.70;99.90
13616;DHT22;6879;51.368;6.782;2022-09-09T08:00:31;18.30;99.20
13616;DHT22;6879;51.368;6.782;2022-09-09T08:03:00;18.30;98.10
13616;DHT22;6879;51.368;6.782;2022-09-09T08:05:29;18.40;98.00
13616;DHT22;6879;51.368;6.782;2022-09-09T08:07:58;18.60;97.70
13616;DHT22;6879;51.368;6.782;2022-09-09T08:10:27;18.80;97.00
13616;DHT22;6879;51.368;6.782;2022-09-09T08:12:57;18.90;95.90
13616;DHT22;6879;51.368;6.782;2022-09-09T08:15:46;18.90;95.20
13616;DHT22;6879;51.368;6.782;2022-09-09T08:18:18;19.10;94.60
13616;DHT22;6879;51.368;6.782;2022-09-09T08:20:46;19.20;94.50
13616;DHT22;6879;51.368;6.782;2022-09-09T08:23:15;19.50;93.90
13616;DHT22;6879;51.368;6.782;2022-09-09T08:25:43;19.50;94.10
13616;DHT22;6879;51.368;6.782;2022-09-09T08:28:13;19.40;92.30
13616;DHT22;6879;51.368;6.782;2022-09-09T08:30:41;19.30;92.70
13616;DHT22;6879;51.368;6.782;2022-09-09T08:33:12;19.30;92.70
13616;DHT22;6879;51.368;6.782;2022-09-09T08:35:50;19.30;92.90
13616;DHT22;6879;51.368;6.782;2022-09-09T08:38:19;19.50;92.90
13616;DHT22;6879;51.368;6.782;2022-09-09T08:40:49;19.80;91.70
13616;DHT22;6879;51.368;6.782;2022-09-09T08:43:22;20.00;91.50
13616;DHT22;6879;51.368;6.782;2022-09-09T08:45:58;20.10;90.60
13616;DHT22;6879;51.368;6.782;2022-09-09T08:48:43;20.30;89.80
13616;DHT22;6879;51.368;6.782;2022-09-09T08:51:13;20.20;89.70
13616;DHT22;6879;51.368;6.782;2022-09-09T08:53:47;20.30;89.90
13616;DHT22;6879;51.368;6.782;2022-09-09T08:56:19;20.60;89.90
13616;DHT22;6879;51.368;6.782;2022-09-09T08:58:54;20.70;88.40
13616;DHT22;6879;51.368;6.782;2022-09-09T09:01:43;20.90;87.10
13616;DHT22;6879;51.368;6.782;2022-09-09T09:04:42;20.80;86.80
13616;DHT22;6879;51.368;6.782;2022-09-09T09:07:21;20.60;87.30
13616;DHT22;6879;51.368;6.782;2022-09-09T09:10:04;20.60;87.70
13616;DHT22;6879;51.368;6.782;2022-09-09T09:12:59;20.40;87.70
13616;DHT22;6879;51.368;6.782;2022-09-09T09:15:32;20.30;88.70
13616;DHT22;6879;51.368;6.782;2022-09-09T09:18:05;20.50;88.80
13616;DHT22;6879;51.368;6.782;2022-09-09T09:20:42;20.70;87.80
13616;DHT22;6879;51.368;6.782;2022-09-09T09:23:22;20.70;87.80
13616;DHT22;6879;51.368;6.782;2022-09-09T09:25:58;20.90;87.80
13616;DHT22;6879;51.368;6.782;2022-09-09T09:28:30;21.00;87.70
13616;DHT22;6879;51.368;6.782;2022-09-09T09:31:11;21.00;87.60
13616;DHT22;6879;51.368;6.782;2022-09-09T09:33:47;20.80;87.80
13616;DHT22;6879;51.368;6.782;2022-09-09T09:36:24;20.70;88.50
13616;DHT22;6879;51.368;6.782;2022-09-09T09:39:03;20.60;88.50
13616;DHT22;6879;51.368;6.782;2022-09-09T09:41:53;20.50;88.40
13616;DHT22;6879;51.368;6.782;2022-09-09T09:44:26;20.50;88.30
13616;DHT22;6879;51.368;6.782;2022-09-09T09:47:12;20.60;88.60
13616;DHT22;6879;51.368;6.782;2022-09-09T09:49:52;20.60;88.20
13616;DHT22;6879;51.368;6.782;2022-09-09T09:52:25;20.70;87.70
13616;DHT22;6879;51.368;6.782;2022-09-09T09:54:57;21.00;87.50
13616;DHT22;6879;51.368;6.782;2022-09-09T09:57:33;21.60;84.60
13616;DHT22;6879;51.368;6.782;2022-09-09T10:00:14;21.70;84.10
13616;DHT22;6879;51.368;6.782;2022-09-09T10:02:50;21.80;82.80
13616;DHT22;6879;51.368;6.782;2022-09-09T10:05:27;21.80;83.20
13616;DHT22;6879;51.368;6.782;2022-09-09T10:08:12;22.40;82.20
13616;DHT22;6879;51.368;6.782;2022-09-09T10:13:34;22.80;80.00
13616;DHT22;6879;51.368;6.782;2022-09-09T10:16:25;22.30;81.50
13616;DHT22;6879;51.368;6.782;2022-09-09T10:18:59;22.10;81.30
13616;DHT22;6879;51.368;6.782;2022-09-09T10:21:52;22.00;81.70
13616;DHT22;6879;51.368;6.782;2022-09-09T10:24:54;21.80;81.80
13616;DHT22;6879;51.368;6.782;2022-09-09T10:27:33;21.90;81.80
13616;DHT22;6879;51.368;6.782;2022-09-09T10:30:14;21.90;82.00
13616;DHT22;6879;51.368;6.782;2022-09-09T10:32:48;21.80;82.20
13616;DHT22;6879;51.368;6.782;2022-09-09T10:35:30;21.60;82.90
13616;DHT22;6879;51.368;6.782;2022-09-09T10:38:17;21.10;83.10
13616;DHT22;6879;51.368;6.782;2022-09-09T10:41:11;20.80;84.20
13616;DHT22;6879;51.368;6.782;2022-09-09T10:44:02;20.70;85.10
13616;DHT22;6879;51.368;6.782;2022-09-09T10:49:48;20.70;84.60
13616;DHT22;6879;51.368;6.782;2022-09-09T10:52:24;20.90;84.30
13616;DHT22;6879;51.368;6.782;2022-09-09T10:54:58;21.10;84.10
13616;DHT22;6879;51.368;6.782;2022-09-09T10:57:33;21.30;84.20
13616;DHT22;6879;51.368;6.782;2022-09-09T11:00:06;21.50;83.40
13616;DHT22;6879;51.368;6.782;2022-09-09T11:02:36;21.90;83.00
13616;DHT22;6879;51.368;6.782;2022-09-09T11:05:16;22.40;82.10
13616;DHT22;6879;51.368;6.782;2022-09-09T11:07:49;22.70;81.00
13616;DHT22;6879;51.368;6.782;2022-09-09T11:10:24;22.60;81.30
13616;DHT22;6879;51.368;6.782;2022-09-09T11:13:01;22.50;81.80
13616;DHT22;6879;51.368;6.782;2022-09-09T11:15:38;22.00;81.90
13616;DHT22;6879;51.368;6.782;2022-09-09T11:18:13;21.70;82.70
13616;DHT22;6879;51.368;6.782;2022-09-09T11:20:43;21.60;82.90
13616;DHT22;6879;51.368;6.782;2022-09-09T11:23:16;21.60;82.60
13616;DHT22;6879;51.368;6.782;2022-09-09T11:25:50;21.70;82.60
13616;DHT22;6879;51.368;6.782;2022-09-09T11:28:42;21.90;81.90
13616;DHT22;6879;51.368;6.782;2022-09-09T11:31:27;22.10;82.00
13616;DHT22;6879;51.368;6.782;2022-09-09T11:34:12;22.10;82.00
13616;DHT22;6879;51.368;6.782;2022-09-09T11:37:06;22.20;82.00
13616;DHT22;6879;51.368;6.782;2022-09-09T11:39:58;22.20;81.70
13616;DHT22;6879;51.368;6.782;2022-09-09T11:42:29;22.00;81.60
13616;DHT22;6879;51.368;6.782;2022-09-09T11:45:09;22.00;82.20
13616;DHT22;6879;51.368;6.782;2022-09-09T11:47:39;22.00;82.90
13616;DHT22;6879;51.368;6.782;2022-09-09T11:50:22;22.20;83.00
13616;DHT22;6879;51.368;6.782;2022-09-09T11:53:18;22.60;82.20
13616;DHT22;6879;51.368;6.782;2022-09-09T11:56:26;23.00;80.00
13616;DHT22;6879;51.368;6.782;2022-09-09T11:58:59;23.70;77.70
13616;DHT22;6879;51.368;6.782;2022-09-09T12:01:35;24.10;77.30
13616;DHT22;6879;51.368;6.782;2022-09-09T12:04:26;23.80;77.70
13616;DHT22;6879;51.368;6.782;2022-09-09T12:06:58;23.60;78.40
13616;DHT22;6879;51.368;6.782;2022-09-09T12:09:44;23.10;79.50
13616;DHT22;6879;51.368;6.782;2022-09-09T12:12:24;22.70;80.50
13616;DHT22;6879;51.368;6.782;2022-09-09T12:15:19;22.30;81.70
13616;DHT22;6879;51.368;6.782;2022-09-09T12:17:52;22.20;82.00
13616;DHT22;6879;51.368;6.782;2022-09-09T12:20:31;22.20;82.10
13616;DHT22;6879;51.368;6.782;2022-09-09T12:23:20;22.50;81.50
13616;DHT22;6879;51.368;6.782;2022-09-09T12:26:04;23.00;80.00
13616;DHT22;6879;51.368;6.782;2022-09-09T12:28:52;23.80;79.40
13616;DHT22;6879;51.368;6.782;2022-09-09T12:31:25;24.00;78.30
13616;DHT22;6879;51.368;6.782;2022-09-09T12:34:06;23.20;79.40
13616;DHT22;6879;51.368;6.782;2022-09-09T12:36:39;22.40;81.30
13616;DHT22;6879;51.368;6.782;2022-09-09T12:39:17;21.80;83.00
13616;DHT22;6879;51.368;6.782;2022-09-09T12:41:53;21.80;83.80
13616;DHT22;6879;51.368;6.782;2022-09-09T12:44:24;21.30;87.20
13616;DHT22;6879;51.368;6.782;2022-09-09T12:46:56;20.90;89.30
13616;DHT22;6879;51.368;6.782;2022-09-09T12:49:30;20.60;90.00
13616;DHT22;6879;51.368;6.782;2022-09-09T12:52:03;20.20;91.60
13616;DHT22;6879;51.368;6.782;2022-09-09T12:54:36;19.90;93.60
13616;DHT22;6879;51.368;6.782;2022-09-09T12:57:09;19.70;95.20
13616;DHT22;6879;51.368;6.782;2022-09-09T12:59:40;19.50;95.70
13616;DHT22;6879;51.368;6.782;2022-09-09T13:02:18;19.40;95.90
13616;DHT22;6879;51.368;6.782;2022-09-09T13:04:49;19.10;97.90
13616;DHT22;6879;51.368;6.782;2022-09-09T13:07:19;18.50;99.90
13616;DHT22;6879;51.368;6.782;2022-09-09T13:09:49;18.10;99.90
13616;DHT22;6879;51.368;6.782;2022-09-09T13:12:19;17.90;99.90
13616;DHT22;6879;51.368;6.782;2022-09-09T13:14:51;17.80;99.90
13616;DHT22;6879;51.368;6.782;2022-09-09T13:17:23;17.70;99.90
13616;DHT22;6879;51.368;6.782;2022-09-09T13:19:53;17.70;99.90
13616;DHT22;6879;51.368;6.782;2022-09-09T13:22:29;17.90;99.90
13616;DHT22;6879;51.368;6.782;2022-09-09T13:25:03;18.10;99.90
13616;DHT22;6879;51.368;6.782;2022-09-09T13:27:33;18.40;99.90
13616;DHT22;6879;51.368;6.782;2022-09-09T13:30:21;18.70;99.90
13616;DHT22;6879;51.368;6.782;2022-09-09T13:33:03;18.80;99.90
13616;DHT22;6879;51.368;6.782;2022-09-09T13:35:34;19.10;99.90
13616;DHT22;6879;51.368;6.782;2022-09-09T13:38:07;19.70;99.90
13616;DHT22;6879;51.368;6.782;2022-09-09T13:40:40;20.30;99.10
13616;DHT22;6879;51.368;6.782;2022-09-09T13:43:24;20.90;96.60
13616;DHT22;6879;51.368;6.782;2022-09-09T13:45:55;22.20;94.10
13616;DHT22;6879;51.368;6.782;2022-09-09T13:48:25;23.10;90.80
13616;DHT22;6879;51.368;6.782;2022-09-09T13:50:57;23.20;89.10
13616;DHT22;6879;51.368;6.782;2022-09-09T13:53:26;22.70;89.30
13616;DHT22;6879;51.368;6.782;2022-09-09T13:55:55;22.40;90.40
13616;DHT22;6879;51.368;6.782;2022-09-09T13:58:25;22.40;90.10
13616;DHT22;6879;51.368;6.782;2022-09-09T14:00:54;23.30;87.00
13616;DHT22;6879;51.368;6.782;2022-09-09T14:03:24;23.40;86.80
13616;DHT22;6879;51.368;6.782;2022-09-09T14:05:53;23.00;87.50
13616;DHT22;6879;51.368;6.782;2022-09-09T14:08:25;23.30;87.40
13616;DHT22;6879;51.368;6.782;2022-09-09T14:10:55;24.10;84.60
13616;DHT22;6879;51.368;6.782;2022-09-09T14:13:25;23.80;85.20
13616;DHT22;6879;51.368;6.782;2022-09-09T14:15:53;23.50;85.60
13616;DHT22;6879;51.368;6.782;2022-09-09T14:18:22;23.40;85.70
13616;DHT22;6879;51.368;6.782;2022-09-09T14:20:52;22.80;85.40
13616;DHT22;6879;51.368;6.782;2022-09-09T14:23:21;22.20;86.10
13616;DHT22;6879;51.368;6.782;2022-09-09T14:25:52;22.70;86.20
13616;DHT22;6879;51.368;6.782;2022-09-09T14:28:22;24.00;83.80
13616;DHT22;6879;51.368;6.782;2022-09-09T14:31:11;23.80;83.40
13616;DHT22;6879;51.368;6.782;2022-09-09T14:33:40;22.60;86.00
13616;DHT22;6879;51.368;6.782;2022-09-09T14:36:09;21.70;88.10
13616;DHT22;6879;51.368;6.782;2022-09-09T14:38:41;21.10;92.80
13616;DHT22;6879;51.368;6.782;2022-09-09T14:41:17;18.90;99.00
13616;DHT22;6879;51.368;6.782;2022-09-09T14:43:46;17.30;99.90
13616;DHT22;6879;51.368;6.782;2022-09-09T14:46:19;16.60;99.90
13616;DHT22;6879;51.368;6.782;2022-09-09T14:48:48;16.20;99.90
13616;DHT22;6879;51.368;6.782;2022-09-09T14:51:19;16.00;99.90
13616;DHT22;6879;51.368;6.782;2022-09-09T14:53:59;15.80;99.90
13616;DHT22;6879;51.368;6.782;2022-09-09T14:56:36;15.80;99.90
13616;DHT22;6879;51.368;6.782;2022-09-09T14:59:08;15.70;99.90
13616;DHT22;6879;51.368;6.782;2022-09-09T15:01:38;15.70;99.90
13616;DHT22;6879;51.368;6.782;2022-09-09T15:04:07;15.80;99.90
13616;DHT22;6879;51.368;6.782;2022-09-09T15:06:36;15.90;99.90
13616;DHT22;6879;51.368;6.782;2022-09-09T15:09:06;16.00;99.90
13616;DHT22;6879;51.368;6.782;2022-09-09T15:11:37;16.00;99.90
13616;DHT22;6879;51.368;6.782;2022-09-09T15:14:06;15.90;99.90
13616;DHT22;6879;51.368;6.782;2022-09-09T15:16:43;15.80;99.90
13616;DHT22;6879;51.368;6.782;2022-09-09T15:19:12;15.80;99.90
13616;DHT22;6879;51.368;6.782;2022-09-09T15:21:41;15.90;99.90
13616;DHT22;6879;51.368;6.782;2022-09-09T15:24:10;15.90;99.90
13616;DHT22;6879;51.368;6.782;2022-09-09T15:26:45;16.00;99.90
13616;DHT22;6879;51.368;6.782;2022-09-09T15:29:14;16.10;99.90
13616;DHT22;6879;51.368;6.782;2022-09-09T15:31:42;16.40;99.90
13616;DHT22;6879;51.368;6.782;2022-09-09T15:34:11;16.60;99.90
13616;DHT22;6879;51.368;6.782;2022-09-09T15:36:42;17.10;99.90
13616;DHT22;6879;51.368;6.782;2022-09-09T15:39:13;17.70;99.90
13616;DHT22;6879;51.368;6.782;2022-09-09T15:41:45;18.00;99.90
13616;DHT22;6879;51.368;6.782;2022-09-09T15:44:15;18.50;99.90
13616;DHT22;6879;51.368;6.782;2022-09-09T15:46:45;19.00;99.90
13616;DHT22;6879;51.368;6.782;2022-09-09T15:49:17;19.20;99.90
13616;DHT22;6879;51.368;6.782;2022-09-09T15:51:47;19.30;99.90
13616;DHT22;6879;51.368;6.782;2022-09-09T15:54:20;19.30;99.90
13616;DHT22;6879;51.368;6.782;2022-09-09T15:56:54;19.20;99.90
13616;DHT22;6879;51.368;6.782;2022-09-09T15:59:23;19.10;99.90
13616;DHT22;6879;51.368;6.782;2022-09-09T16:01:54;19.10;99.90
13616;DHT22;6879;51.368;6.782;2022-09-09T16:04:24;19.20;99.90
13616;DHT22;6879;51.368;6.782;2022-09-09T16:06:54;19.10;99.90
13616;DHT22;6879;51.368;6.782;2022-09-09T16:09:23;19.00;99.90
13616;DHT22;6879;51.368;6.782;2022-09-09T16:11:55;18.90;99.90
13616;DHT22;6879;51.368;6.782;2022-09-09T16:14:26;18.90;99.90
13616;DHT22;6879;51.368;6.782;2022-09-09T16:16:56;19.00;99.90
13616;DHT22;6879;51.368;6.782;2022-09-09T16:19:24;18.90;99.90
13616;DHT22;6879;51.368;6.782;2022-09-09T16:21:53;18.90;99.90
13616;DHT22;6879;51.368;6.782;2022-09-09T16:24:22;19.00;99.90
13616;DHT22;6879;51.368;6.782;2022-09-09T16:27:02;20.10;99.90
13616;DHT22;6879;51.368;6.782;2022-09-09T16:29:33;20.90;98.50
13616;DHT22;6879;51.368;6.782;2022-09-09T16:32:35;20.60;98.20
13616;DHT22;6879;51.368;6.782;2022-09-09T16:36:22;20.20;99.20
13616;DHT22;6879;51.368;6.782;2022-09-09T16:39:00;19.80;99.90
13616;DHT22;6879;51.368;6.782;2022-09-09T16:41:47;19.60;99.90
13616;DHT22;6879;51.368;6.782;2022-09-09T16:44:31;19.30;99.90
13616;DHT22;6879;51.368;6.782;2022-09-09T16:47:00;19.20;99.90
13616;DHT22;6879;51.368;6.782;2022-09-09T16:49:28;19.00;99.90
13616;DHT22;6879;51.368;6.782;2022-09-09T16:51:59;18.80;99.90
13616;DHT22;6879;51.368;6.782;2022-09-09T16:54:28;18.70;99.90
13616;DHT22;6879;51.368;6.782;2022-09-09T16:57:01;18.60;99.90
13616;DHT22;6879;51.368;6.782;2022-09-09T16:59:32;18.40;99.90
13616;DHT22;6879;51.368;6.782;2022-09-09T17:02:13;18.20;99.90
13616;DHT22;6879;51.368;6.782;2022-09-09T17:04:42;17.90;99.90
13616;DHT22;6879;51.368;6.782;2022-09-09T17:07:14;17.70;99.90
13616;DHT22;6879;51.368;6.782;2022-09-09T17:09:47;17.70;99.90
13616;DHT22;6879;51.368;6.782;2022-09-09T17:12:16;17.50;99.90
13616;DHT22;6879;51.368;6.782;2022-09-09T17:14:48;17.50;99.90
13616;DHT22;6879;51.368;6.782;2022-09-09T17:17:17;17.40;99.90
13616;DHT22;6879;51.368;6.782;2022-09-09T17:19:58;17.40;99.90
13616;DHT22;6879;51.368;6.782;2022-09-09T17:22:26;17.30;99.90
13616;DHT22;6879;51.368;6.782;2022-09-09T17:24:55;17.30;99.90
13616;DHT22;6879;51.368;6.782;2022-09-09T17:27:24;17.20;99.90
13616;DHT22;6879;51.368;6.782;2022-09-09T17:29:54;17.10;99.90
13616;DHT22;6879;51.368;6.782;2022-09-09T17:32:24;17.10;99.90
13616;DHT22;6879;51.368;6.782;2022-09-09T17:34:53;17.00;99.90
13616;DHT22;6879;51.368;6.782;2022-09-09T17:37:22;17.00;99.90
13616;DHT22;6879;51.368;6.782;2022-09-09T17:39:56;17.00;99.90
13616;DHT22;6879;51.368;6.782;2022-09-09T17:42:26;16.90;99.90
13616;DHT22;6879;51.368;6.782;2022-09-09T17:44:56;16.90;99.90
13616;DHT22;6879;51.368;6.782;2022-09-09T17:47:28;16.90;99.90
13616;DHT22;6879;51.368;6.782;2022-09-09T17:49:57;16.90;99.90
13616;DHT22;6879;51.368;6.782;2022-09-09T17:52:26;16.90;99.90
13616;DHT22;6879;51.368;6.782;2022-09-09T17:54:54;16.90;99.90
13616;DHT22;6879;51.368;6.782;2022-09-09T17:57:23;16.90;99.90
13616;DHT22;6879;51.368;6.782;2022-09-09T17:59:52;16.80;99.90
13616;DHT22;6879;51.368;6.782;2022-09-09T18:02:22;16.80;99.90
13616;DHT22;6879;51.368;6.782;2022-09-09T18:04:51;16.80;99.90
13616;DHT22;6879;51.368;6.782;2022-09-09T18:07:20;16.90;99.90
13616;DHT22;6879;51.368;6.782;2022-09-09T18:09:52;16.90;99.90
13616;DHT22;6879;51.368;6.782;2022-09-09T18:12:21;16.90;99.90
13616;DHT22;6879;51.368;6.782;2022-09-09T18:14:50;17.00;99.90
13616;DHT22;6879;51.368;6.782;2022-09-09T18:17:25;16.90;99.90
13616;DHT22;6879;51.368;6.782;2022-09-09T18:19:56;17.00;99.90
13616;DHT22;6879;51.368;6.782;2022-09-09T18:22:25;17.00;99.90
13616;DHT22;6879;51.368;6.782;2022-09-09T18:24:57;16.90;99.90
13616;DHT22;6879;51.368;6.782;2022-09-09T18:27:27;16.90;99.90
13616;DHT22;6879;51.368;6.782;2022-09-09T18:29:55;16.90;99.90
13616;DHT22;6879;51.368;6.782;2022-09-09T18:32:25;17.00;99.90
13616;DHT22;6879;51.368;6.782;2022-09-09T18:34:54;17.00;99.90
13616;DHT22;6879;51.368;6.782;2022-09-09T18:37:25;17.00;99.90
13616;DHT22;6879;51.368;6.782;2022-09-09T18:39:54;17.00;99.90
13616;DHT22;6879;51.368;6.782;2022-09-09T18:42:22;17.00;99.90
13616;DHT22;6879;51.368;6.782;2022-09-09T18:44:52;17.00;99.90
13616;DHT22;6879;51.368;6.782;2022-09-09T18:47:21;17.00;99.90
13616;DHT22;6879;51.368;6.782;2022-09-09T18:49:52;17.00;99.90
13616;DHT22;6879;51.368;6.782;2022-09-09T18:52:21;17.00;99.90
13616;DHT22;6879;51.368;6.782;2022-09-09T18:54:51;17.00;99.90
13616;DHT22;6879;51.368;6.782;2022-09-09T18:57:20;17.10;99.90
13616;DHT22;6879;51.368;6.782;2022-09-09T18:59:52;17.10;99.90
13616;DHT22;6879;51.368;6.782;2022-09-09T19:02:21;17.20;99.90
13616;DHT22;6879;51.368;6.782;2022-09-09T19:04:52;17.20;99.90
13616;DHT22;6879;51.368;6.782;2022-09-09T19:07:20;17.10;99.90
13616;DHT22;6879;51.368;6.782;2022-09-09T19:09:49;17.20;99.90
13616;DHT22;6879;51.368;6.782;2022-09-09T19:12:18;17.10;99.90
13616;DHT22;6879;51.368;6.782;2022-09-09T19:14:47;17.10;99.90
13616;DHT22;6879;51.368;6.782;2022-09-09T19:17:16;16.90;99.90
13616;DHT22;6879;51.368;6.782;2022-09-09T19:19:45;16.80;99.90
13616;DHT22;6879;51.368;6.782;2022-09-09T19:22:15;16.70;99.90
13616;DHT22;6879;51.368;6.782;2022-09-09T19:24:44;16.70;99.90
13616;DHT22;6879;51.368;6.782;2022-09-09T19:27:14;16.70;99.90
13616;DHT22;6879;51.368;6.782;2022-09-09T19:29:45;16.70;99.90
13616;DHT22;6879;51.368;6.782;2022-09-09T19:32:14;16.70;99.90
13616;DHT22;6879;51.368;6.782;2022-09-09T19:35:05;16.70;99.90
13616;DHT22;6879;51.368;6.782;2022-09-09T19:37:36;16.70;99.90
13616;DHT22;6879;51.368;6.782;2022-09-09T19:40:05;16.70;99.90
13616;DHT22;6879;51.368;6.782;2022-09-09T19:42:35;16.70;99.90
13616;DHT22;6879;51.368;6.782;2022-09-09T19:45:04;16.60;99.90
13616;DHT22;6879;51.368;6.782;2022-09-09T19:47:34;16.60;99.90
13616;DHT22;6879;51.368;6.782;2022-09-09T19:50:03;16.50;99.90
13616;DHT22;6879;51.368;6.782;2022-09-09T19:52:32;16.50;99.90
13616;DHT22;6879;51.368;6.782;2022-09-09T19:55:05;16.50;99.90
13616;DHT22;6879;51.368;6.782;2022-09-09T19:57:34;16.40;99.90
13616;DHT22;6879;51.368;6.782;2022-09-09T20:00:05;16.40;99.90
13616;DHT22;6879;51.368;6.782;2022-09-09T20:02:37;16.40;99.90
13616;DHT22;6879;51.368;6.782;2022-09-09T20:05:07;16.30;99.90
13616;DHT22;6879;51.368;6.782;2022-09-09T20:07:44;16.30;99.90
13616;DHT22;6879;51.368;6.782;2022-09-09T20:34:54;16.20;99.90
13616;DHT22;6879;51.368;6.782;2022-09-09T20:37:38;16.10;99.90
13616;DHT22;6879;51.368;6.782;2022-09-09T20:45:43;15.90;99.90
13616;DHT22;6879;51.368;6.782;2022-09-09T21:39:22;15.90;99.90
13616;DHT22;6879;51.368;6.782;2022-09-09T21:42:13;15.80;99.90
13616;DHT22;6879;51.368;6.782;2022-09-09T21:45:44;15.80;99.90
13616;DHT22;6879;51.368;6.782;2022-09-09T21:48:20;15.80;99.90
13616;DHT22;6879;51.368;6.782;2022-09-09T21:51:29;15.90;99.90
13616;DHT22;6879;51.368;6.782;2022-09-09T21:54:36;15.90;99.90
13616;DHT22;6879;51.368;6.782;2022-09-09T22:01:26;15.90;99.90
13616;DHT22;6879;51.368;6.782;2022-09-09T22:04:04;15.90;99.90
13616;DHT22;6879;51.368;6.782;2022-09-09T22:07:06;16.00;99.90
13616;DHT22;6879;51.368;6.782;2022-09-09T22:10:06;15.90;99.90
13616;DHT22;6879;51.368;6.782;2022-09-09T22:12:36;15.90;99.90
13616;DHT22;6879;51.368;6.782;2022-09-09T22:15:06;15.90;99.90
13616;DHT22;6879;51.368;6.782;2022-09-09T22:17:35;15.90;99.90
13616;DHT22;6879;51.368;6.782;2022-09-09T22:20:09;15.90;99.90
13616;DHT22;6879;51.368;6.782;2022-09-09T22:22:45;15.80;99.90
13616;DHT22;6879;51.368;6.782;2022-09-09T22:25:16;15.80;99.90
13616;DHT22;6879;51.368;6.782;2022-09-09T22:27:47;15.70;99.90
13616;DHT22;6879;51.368;6.782;2022-09-09T22:30:16;15.70;99.90
13616;DHT22;6879;51.368;6.782;2022-09-09T22:32:46;15.60;99.90
13616;DHT22;6879;51.368;6.782;2022-09-09T22:35:14;15.50;99.90
13616;DHT22;6879;51.368;6.782;2022-09-09T22:37:43;15.40;99.90
13616;DHT22;6879;51.368;6.782;2022-09-09T22:40:15;15.50;99.90
13616;DHT22;6879;51.368;6.782;2022-09-09T22:42:44;15.40;99.90
13616;DHT22;6879;51.368;6.782;2022-09-09T22:45:19;15.40;99.90
13616;DHT22;6879;51.368;6.782;2022-09-09T22:47:47;15.50;99.90
13616;DHT22;6879;51.368;6.782;2022-09-09T22:50:17;15.50;99.90
13616;DHT22;6879;51.368;6.782;2022-09-09T22:52:46;15.60;99.90
13616;DHT22;6879;51.368;6.782;2022-09-09T22:55:16;15.60;99.90
13616;DHT22;6879;51.368;6.782;2022-09-09T22:57:45;15.60;99.90
13616;DHT22;6879;51.368;6.782;2022-09-09T23:00:14;15.70;99.90
13616;DHT22;6879;51.368;6.782;2022-09-09T23:02:43;15.80;99.90
13616;DHT22;6879;51.368;6.782;2022-09-09T23:05:15;15.80;99.90
13616;DHT22;6879;51.368;6.782;2022-09-09T23:07:43;15.80;99.90
13616;DHT22;6879;51.368;6.782;2022-09-09T23:10:13;15.80;99.90
13616;DHT22;6879;51.368;6.782;2022-09-09T23:12:44;15.80;99.90
13616;DHT22;6879;51.368;6.782;2022-09-09T23:15:17;15.80;99.90
13616;DHT22;6879;51.368;6.782;2022-09-09T23:17:52;15.70;99.90
13616;DHT22;6879;51.368;6.782;2022-09-09T23:20:24;15.80;99.90
13616;DHT22;6879;51.368;6.782;2022-09-09T23:22:57;15.80;99.90
13616;DHT22;6879;51.368;6.782;2022-09-09T23:25:30;15.80;99.90
13616;DHT22;6879;51.368;6.782;2022-09-09T23:28:09;15.70;99.90
13616;DHT22;6879;51.368;6.782;2022-09-09T23:30:40;15.80;99.90
13616;DHT22;6879;51.368;6.782;2022-09-09T23:33:09;15.80;99.90
13616;DHT22;6879;51.368;6.782;2022-09-09T23:35:39;15.70;99.90
13616;DHT22;6879;51.368;6.782;2022-09-09T23:38:08;15.70;99.90
13616;DHT22;6879;51.368;6.782;2022-09-09T23:40:37;15.70;99.90
13616;DHT22;6879;51.368;6.782;2022-09-09T23:43:06;15.70;99.90
13616;DHT22;6879;51.368;6.782;2022-09-09T23:45:39;15.80;99.90
13616;DHT22;6879;51.368;6.782;2022-09-09T23:48:08;15.80;99.90
13616;DHT22;6879;51.368;6.782;2022-09-09T23:50:43;15.90;99.90
13616;DHT22;6879;51.368;6.782;2022-09-09T23:53:12;15.90;99.90